Time;durP1;ratioP1;P1;durP2;ratioP2;P2;SDS_P1;SDS_P2;PMS_P1;PMS_P2;Temp;Humidity;BMP_temperature;BMP_pressure;BME280_temperature;BME280_humidity;BME280_pressure;Samples;Min_cycle;Max_cycle;Signal;HPM_P1;HPM_P2
2021/07/02 00:02:04;;;;;;;5.30;3.15;;;19.20;66.20;;;;;;4941005;28;20058;-80
2021/07/02 00:04:31;;;;;;;4.65;3.08;;;19.20;66.20;;;;;;4942556;28;20070;-80
2021/07/02 00:06:57;;;;;;;4.82;3.47;;;19.10;66.20;;;;;;4952739;28;20035;-80
2021/07/02 00:09:23;;;;;;;5.28;2.95;;;19.20;66.30;;;;;;4935425;28;20027;-79
2021/07/02 00:11:49;;;;;;;4.82;2.90;;;19.10;66.20;;;;;;4937811;28;20027;-80
2021/07/02 00:14:14;;;;;;;5.45;3.65;;;19.10;66.20;;;;;;4945459;28;20027;-81
2021/07/02 00:16:42;;;;;;;4.50;2.80;;;19.10;66.20;;;;;;4923696;28;20535;-80
2021/07/02 00:19:07;;;;;;;4.18;2.75;;;19.10;66.20;;;;;;4938365;28;20033;-80
2021/07/02 00:21:33;;;;;;;4.60;3.17;;;19.20;66.30;;;;;;4935247;28;20042;-80
2021/07/02 00:23:59;;;;;;;4.60;3.08;;;19.10;66.30;;;;;;4952094;28;20527;-80
2021/07/02 00:26:25;;;;;;;4.97;3.05;;;19.20;67.00;;;;;;4947605;28;20373;-80
2021/07/02 00:28:51;;;;;;;4.70;3.33;;;19.10;66.30;;;;;;4946022;28;20067;-80
2021/07/02 00:31:17;;;;;;;5.55;3.30;;;19.10;66.30;;;;;;4955564;28;20090;-81
2021/07/02 00:33:43;;;;;;;4.60;3.22;;;19.10;66.30;;;;;;4956319;28;20034;-79
2021/07/02 00:36:09;;;;;;;4.82;2.78;;;19.10;66.30;;;;;;4943654;28;20408;-79
2021/07/02 00:38:34;;;;;;;4.80;3.15;;;19.10;66.30;;;;;;4963295;28;20044;-80
2021/07/02 00:41:00;;;;;;;4.75;3.28;;;19.10;66.30;;;;;;4934702;28;20035;-80
2021/07/02 00:43:26;;;;;;;4.75;3.30;;;19.10;66.30;;;;;;4939935;28;20035;-80
2021/07/02 00:45:52;;;;;;;5.22;3.35;;;19.10;66.40;;;;;;4956705;28;20431;-80
2021/07/02 00:48:21;;;;;;;4.43;2.72;;;19.10;66.40;;;;;;4943241;28;20030;-80
2021/07/02 00:50:49;;;;;;;4.57;3.15;;;19.10;66.40;;;;;;4949544;28;20081;-80
2021/07/02 00:53:16;;;;;;;6.63;3.10;;;19.10;66.40;;;;;;4949535;28;20066;-80
2021/07/02 00:55:43;;;;;;;5.55;3.38;;;19.10;66.40;;;;;;4952794;28;20053;-80
2021/07/02 00:58:10;;;;;;;4.45;3.13;;;19.10;66.40;;;;;;4936621;28;20031;-80
2021/07/02 01:00:37;;;;;;;4.50;3.28;;;19.10;66.40;;;;;;4916825;28;20031;-79
2021/07/02 01:03:03;;;;;;;4.90;3.47;;;19.10;66.40;;;;;;4945016;28;20090;-80
2021/07/02 01:05:29;;;;;;;5.00;3.15;;;19.00;66.40;;;;;;4942555;28;20126;-80
2021/07/02 01:07:55;;;;;;;3.75;2.83;;;19.00;66.40;;;;;;4961185;28;20458;-80
2021/07/02 01:10:21;;;;;;;4.88;3.55;;;19.00;66.40;;;;;;4954953;28;20062;-80
2021/07/02 01:12:48;;;;;;;5.53;3.55;;;19.00;66.40;;;;;;4971637;28;20043;-80
2021/07/02 01:15:25;;;;;;;5.40;3.10;;;19.00;66.40;;;;;;4939622;28;20050;-80
2021/07/02 01:18:10;;;;;;;4.28;3.15;;;19.00;66.50;;;;;;4940740;28;20047;-80
2021/07/02 01:20:39;;;;;;;4.53;3.05;;;19.00;66.50;;;;;;4953000;28;20042;-79
2021/07/02 01:23:05;;;;;;;3.88;2.97;;;19.00;66.50;;;;;;4919323;28;20375;-80
2021/07/02 01:25:35;;;;;;;4.55;3.20;;;19.00;66.50;;;;;;4934224;28;20039;-81
2021/07/02 01:28:05;;;;;;;4.53;3.30;;;19.00;66.50;;;;;;4959865;28;20030;-80
2021/07/02 01:30:32;;;;;;;5.25;3.40;;;19.00;66.50;;;;;;4931932;28;20125;-81
2021/07/02 01:32:58;;;;;;;4.78;3.22;;;19.00;66.50;;;;;;4939780;28;20027;-80
2021/07/02 01:35:25;;;;;;;4.82;3.30;;;19.00;66.50;;;;;;4939272;28;20471;-81
2021/07/02 01:37:51;;;;;;;4.90;3.22;;;19.00;66.50;;;;;;4944200;28;20085;-80
2021/07/02 01:40:17;;;;;;;4.40;3.00;;;19.00;66.50;;;;;;4923713;28;20113;-80
2021/07/02 01:42:44;;;;;;;6.28;3.63;;;18.90;66.50;;;;;;4919994;28;20031;-80
2021/07/02 01:45:11;;;;;;;4.97;3.33;;;19.00;66.60;;;;;;4940264;28;20174;-80
2021/07/02 01:47:39;;;;;;;4.75;3.10;;;18.90;66.60;;;;;;4951436;28;20030;-79
2021/07/02 01:50:08;;;;;;;5.82;3.78;;;18.90;66.50;;;;;;4951201;28;20034;-80
2021/07/02 01:52:35;;;;;;;4.82;3.38;;;18.90;66.50;;;;;;4916497;28;20047;-80
2021/07/02 01:55:01;;;;;;;5.10;3.40;;;18.90;66.60;;;;;;4924415;29;20032;-81
2021/07/02 01:57:28;;;;;;;5.47;3.38;;;18.90;66.60;;;;;;4910166;29;20071;-80
2021/07/02 02:00:00;;;;;;;4.85;3.50;;;18.90;66.60;;;;;;4954000;29;20103;-80
2021/07/02 02:02:27;;;;;;;5.28;3.60;;;18.90;66.60;;;;;;4916386;28;20134;-80
2021/07/02 02:04:58;;;;;;;4.90;3.38;;;18.90;66.60;;;;;;4914344;28;20030;-80
2021/07/02 02:07:24;;;;;;;5.38;3.58;;;18.90;66.60;;;;;;4958496;28;20075;-80
2021/07/02 02:09:53;;;;;;;5.50;3.53;;;18.90;66.60;;;;;;4949766;28;20031;-81
2021/07/02 02:12:19;;;;;;;4.68;3.20;;;18.90;66.60;;;;;;4945108;29;20070;-80
2021/07/02 02:14:48;;;;;;;4.55;3.33;;;18.90;66.60;;;;;;4945784;29;20051;-81
2021/07/02 02:17:16;;;;;;;5.68;3.28;;;18.90;66.60;;;;;;4924222;29;20074;-80
2021/07/02 02:19:44;;;;;;;5.43;3.50;;;18.90;66.60;;;;;;4914196;28;20551;-80
2021/07/02 02:22:10;;;;;;;6.05;3.70;;;18.90;66.60;;;;;;4938753;28;20038;-79
2021/07/02 02:24:43;;;;;;;4.15;3.13;;;18.90;66.60;;;;;;4935059;29;20122;-80
2021/07/02 02:27:11;;;;;;;5.10;3.30;;;18.90;66.60;;;;;;4928524;28;20118;-81
2021/07/02 02:29:37;;;;;;;4.80;3.40;;;18.90;66.60;;;;;;4950621;28;20475;-80
2021/07/02 02:32:04;;;;;;;4.70;3.42;;;18.90;66.60;;;;;;4949215;28;20042;-80
2021/07/02 02:34:30;;;;;;;4.50;3.28;;;18.80;66.60;;;;;;4919448;29;20499;-81
2021/07/02 02:36:57;;;;;;;7.05;3.25;;;18.80;66.60;;;;;;4919786;29;20110;-80
2021/07/02 02:39:25;;;;;;;4.30;2.92;;;18.90;66.70;;;;;;4921840;29;20034;-80
2021/07/02 02:41:52;;;;;;;5.28;3.40;;;18.90;66.70;;;;;;4925248;29;20062;-80
2021/07/02 02:44:18;;;;;;;5.70;3.75;;;18.90;66.70;;;;;;4929397;28;20106;-80
2021/07/02 02:46:45;;;;;;;4.85;3.28;;;18.80;66.60;;;;;;4939724;28;20033;-80
2021/07/02 02:49:11;;;;;;;5.40;3.72;;;18.80;66.70;;;;;;4941463;29;20107;-80
2021/07/02 02:51:37;;;;;;;5.50;3.20;;;18.80;66.60;;;;;;4919054;28;20070;-80
2021/07/02 02:54:03;;;;;;;4.47;3.28;;;18.80;66.70;;;;;;4956966;28;20051;-80
2021/07/02 02:56:30;;;;;;;5.07;3.47;;;18.80;66.70;;;;;;4949831;28;20047;-80
2021/07/02 02:58:57;;;;;;;4.88;3.67;;;18.80;66.70;;;;;;4946532;28;20387;-80
2021/07/02 03:01:23;;;;;;;4.80;3.10;;;18.80;66.70;;;;;;4947406;28;20018;-81
2021/07/02 03:03:52;;;;;;;5.30;3.35;;;18.80;66.70;;;;;;4926543;28;20034;-80
2021/07/02 03:06:18;;;;;;;5.95;3.30;;;18.70;66.60;;;;;;4944792;28;20367;-80
2021/07/02 03:08:44;;;;;;;4.53;3.20;;;18.80;66.70;;;;;;4946396;28;20385;-80
2021/07/02 03:11:10;;;;;;;4.57;3.33;;;18.80;66.70;;;;;;4970884;28;20118;-80
2021/07/02 03:13:36;;;;;;;4.65;3.38;;;18.70;66.60;;;;;;4965191;28;20082;-78
2021/07/02 03:16:05;;;;;;;5.97;4.30;;;18.70;66.70;;;;;;4964403;28;20047;-80
2021/07/02 03:18:38;;;;;;;4.68;3.47;;;18.80;66.70;;;;;;4919936;28;20463;-80
2021/07/02 03:21:06;;;;;;;5.40;3.67;;;18.80;66.70;;;;;;4955867;28;20093;-79
2021/07/02 03:23:32;;;;;;;4.82;3.53;;;18.70;66.60;;;;;;4962771;28;20047;-80
2021/07/02 03:25:58;;;;;;;5.63;3.60;;;18.70;66.70;;;;;;4942956;28;20130;-81
2021/07/02 03:28:25;;;;;;;4.82;3.35;;;18.70;66.70;;;;;;4980749;28;20114;-81
2021/07/02 03:30:51;;;;;;;5.13;3.63;;;18.70;66.70;;;;;;4939480;28;20039;-80
2021/07/02 03:33:17;;;;;;;5.00;3.40;;;18.70;66.70;;;;;;4949123;28;20026;-81
2021/07/02 03:35:44;;;;;;;4.72;3.38;;;18.70;66.80;;;;;;4956936;28;20041;-80
2021/07/02 03:38:12;;;;;;;4.82;3.63;;;18.70;66.70;;;;;;4951476;28;20118;-80
2021/07/02 03:40:39;;;;;;;5.47;3.55;;;18.70;66.80;;;;;;4941252;28;20353;-81
2021/07/02 03:43:06;;;;;;;5.55;3.90;;;18.70;66.70;;;;;;4946680;28;20035;-80
2021/07/02 03:45:32;;;;;;;5.78;3.20;;;18.70;66.80;;;;;;4938790;28;20058;-81
2021/07/02 03:48:01;;;;;;;5.68;3.75;;;18.60;66.70;;;;;;4923554;28;20038;-80
2021/07/02 03:50:31;;;;;;;4.95;3.58;;;18.60;66.70;;;;;;4929033;28;20055;-80
2021/07/02 03:52:59;;;;;;;5.63;3.72;;;18.60;66.80;;;;;;4957204;28;20054;-80
2021/07/02 03:55:25;;;;;;;4.90;3.50;;;18.60;66.70;;;;;;4943512;28;20043;-80
2021/07/02 03:57:50;;;;;;;5.95;3.97;;;18.60;66.70;;;;;;4956708;28;20408;-80
2021/07/02 04:00:16;;;;;;;6.30;4.13;;;18.60;66.80;;;;;;4946833;28;20054;-80
2021/07/02 04:02:42;;;;;;;5.57;3.65;;;18.60;66.80;;;;;;4959233;28;20053;-80
2021/07/02 04:05:09;;;;;;;5.05;3.55;;;18.60;67.00;;;;;;4964986;28;20031;-80
2021/07/02 04:07:34;;;;;;;5.60;3.70;;;18.60;66.80;;;;;;4933610;28;20039;-80
2021/07/02 04:10:00;;;;;;;5.63;4.32;;;18.60;66.80;;;;;;4970690;28;20027;-80
2021/07/02 04:12:26;;;;;;;5.80;3.83;;;18.50;66.80;;;;;;4942072;28;20391;-80
2021/07/02 04:14:52;;;;;;;6.32;4.10;;;18.60;66.80;;;;;;4941700;28;20058;-80
2021/07/02 04:17:17;;;;;;;6.72;3.90;;;18.50;66.80;;;;;;4936399;28;20033;-79
2021/07/02 04:19:43;;;;;;;5.00;3.50;;;18.60;66.90;;;;;;4928147;28;20427;-80
2021/07/02 04:22:09;;;;;;;5.22;3.65;;;18.50;66.80;;;;;;4963855;28;20053;-80
2021/07/02 04:24:35;;;;;;;5.30;4.10;;;18.50;66.80;;;;;;4956443;28;20395;-80
2021/07/02 04:27:01;;;;;;;5.75;4.25;;;18.50;66.80;;;;;;4947175;28;20063;-81
2021/07/02 04:29:27;;;;;;;5.82;4.35;;;18.50;66.80;;;;;;4953039;28;20436;-81
2021/07/02 04:31:53;;;;;;;5.40;3.90;;;18.50;66.80;;;;;;4939323;28;20035;-80
2021/07/02 04:34:19;;;;;;;5.43;4.00;;;18.50;66.90;;;;;;4943842;28;20019;-81
2021/07/02 04:36:45;;;;;;;6.03;4.30;;;18.50;66.90;;;;;;4941192;28;20035;-81
2021/07/02 04:39:11;;;;;;;6.10;4.18;;;18.50;66.90;;;;;;4935990;28;20082;-79
2021/07/02 04:41:38;;;;;;;6.28;4.35;;;18.50;66.90;;;;;;4984725;28;20395;-79
2021/07/02 04:44:04;;;;;;;6.28;4.53;;;18.50;66.90;;;;;;4981167;28;20181;-79
2021/07/02 04:46:30;;;;;;;5.90;4.10;;;18.50;66.90;;;;;;4976680;28;20042;-80
2021/07/02 04:48:56;;;;;;;5.80;4.30;;;18.50;66.90;;;;;;4982250;28;20050;-80
2021/07/02 04:51:22;;;;;;;6.18;4.28;;;18.50;66.90;;;;;;4948178;28;20027;-79
2021/07/02 04:53:47;;;;;;;5.93;4.00;;;18.50;66.90;;;;;;4956612;28;20046;-80
2021/07/02 04:56:13;;;;;;;6.38;4.40;;;18.50;66.90;;;;;;4967249;28;20030;-80
2021/07/02 04:58:41;;;;;;;6.20;4.20;;;18.50;66.90;;;;;;4949146;28;20489;-83
2021/07/02 05:01:07;;;;;;;6.32;4.32;;;18.50;66.90;;;;;;4949525;28;20026;-84
2021/07/02 05:03:32;;;;;;;5.40;3.95;;;18.40;66.90;;;;;;4942807;28;20464;-83
2021/07/02 05:06:00;;;;;;;6.10;4.32;;;18.50;66.90;;;;;;4948845;28;20046;-83
2021/07/02 05:08:26;;;;;;;6.85;4.90;;;18.50;67.00;;;;;;4942464;28;20383;-79
2021/07/02 05:10:52;;;;;;;7.13;4.63;;;18.50;67.00;;;;;;4949658;28;20046;-79
2021/07/02 05:13:18;;;;;;;6.45;4.38;;;18.40;66.90;;;;;;4967625;28;20022;-80
2021/07/02 05:15:43;;;;;;;7.15;4.75;;;18.40;66.90;;;;;;4965399;28;20038;-84
2021/07/02 05:18:09;;;;;;;7.13;4.80;;;18.50;67.00;;;;;;4936993;29;20059;-81
2021/07/02 05:20:35;;;;;;;5.38;3.97;;;18.40;67.00;;;;;;4952919;28;20062;-81
2021/07/02 05:23:01;;;;;;;5.97;4.43;;;18.40;67.00;;;;;;4954889;28;20023;-81
2021/07/02 05:25:26;;;;;;;6.55;4.68;;;18.50;67.00;;;;;;4959607;28;20125;-81
2021/07/02 05:27:52;;;;;;;6.72;4.22;;;18.40;67.00;;;;;;4945983;28;20074;-82
2021/07/02 05:30:18;;;;;;;5.78;4.22;;;18.40;67.00;;;;;;4967448;28;20034;-82
2021/07/02 05:32:44;;;;;;;7.18;4.63;;;18.40;67.00;;;;;;4981731;28;20491;-82
2021/07/02 05:35:10;;;;;;;6.78;4.78;;;18.50;67.10;;;;;;4975836;28;20062;-81
2021/07/02 05:37:40;;;;;;;6.88;4.85;;;18.50;67.10;;;;;;4959356;28;20027;-82
2021/07/02 05:40:07;;;;;;;6.03;4.75;;;18.40;67.10;;;;;;4937510;28;20030;-80
2021/07/02 05:42:32;;;;;;;7.00;4.63;;;18.50;67.10;;;;;;4944949;29;20099;-81
2021/07/02 05:44:58;;;;;;;6.05;4.45;;;18.40;67.10;;;;;;4918282;28;20034;-81
2021/07/02 05:47:24;;;;;;;6.53;4.82;;;18.50;67.20;;;;;;4958866;28;20096;-80
2021/07/02 05:49:50;;;;;;;6.00;4.80;;;18.50;67.10;;;;;;4942632;29;20042;-81
2021/07/02 05:52:16;;;;;;;6.70;5.10;;;18.50;67.20;;;;;;4932017;28;20023;-81
2021/07/02 05:54:45;;;;;;;6.80;5.07;;;18.50;67.20;;;;;;4942401;28;20053;-82
2021/07/02 05:57:11;;;;;;;7.00;4.97;;;18.50;67.20;;;;;;4967204;28;20031;-81
2021/07/02 05:59:36;;;;;;;7.35;4.78;;;18.50;67.20;;;;;;4981058;28;20037;-81
2021/07/02 06:02:02;;;;;;;8.00;5.20;;;18.50;67.10;;;;;;4981061;28;20050;-82
2021/07/02 06:04:28;;;;;;;6.80;5.00;;;18.50;67.10;;;;;;4964104;28;20027;-81
2021/07/02 06:06:54;;;;;;;7.50;5.00;;;18.50;67.10;;;;;;4960186;28;20480;-82
2021/07/02 06:09:20;;;;;;;7.28;4.72;;;18.50;67.10;;;;;;4963942;28;20035;-81
2021/07/02 06:11:46;;;;;;;7.03;5.30;;;18.50;67.20;;;;;;4949157;28;20039;-81
2021/07/02 06:14:11;;;;;;;7.05;5.25;;;18.50;67.10;;;;;;4943292;29;20031;-81
2021/07/02 06:16:37;;;;;;;7.55;5.30;;;18.50;67.10;;;;;;4947501;28;20118;-81
2021/07/02 06:19:03;;;;;;;6.53;4.30;;;18.60;67.20;;;;;;4954149;28;20057;-81
2021/07/02 06:21:29;;;;;;;6.45;4.78;;;18.50;67.80;;;;;;4966460;28;20026;-82
2021/07/02 06:23:55;;;;;;;6.93;4.97;;;18.60;67.20;;;;;;4950690;28;20097;-80
2021/07/02 06:26:21;;;;;;;7.10;5.25;;;18.60;67.20;;;;;;4930959;28;20038;-81
2021/07/02 06:28:47;;;;;;;6.93;5.00;;;18.60;67.20;;;;;;4950945;28;20027;-81
2021/07/02 06:31:12;;;;;;;6.40;4.80;;;18.60;67.20;;;;;;4959207;28;20050;-81
2021/07/02 06:33:38;;;;;;;7.78;5.07;;;18.60;67.20;;;;;;4944739;29;20031;-83
2021/07/02 06:36:05;;;;;;;7.13;5.13;;;18.60;67.20;;;;;;4927458;28;20392;-78
2021/07/02 06:38:30;;;;;;;7.28;4.90;;;18.60;67.20;;;;;;4983814;28;20062;-83
2021/07/02 06:40:56;;;;;;;6.45;4.50;;;18.60;67.20;;;;;;4950632;28;20069;-78
2021/07/02 06:43:22;;;;;;;7.03;5.00;;;18.60;67.20;;;;;;4966627;28;20466;-78
2021/07/02 06:45:48;;;;;;;6.80;4.80;;;18.70;67.30;;;;;;4981620;28;20034;-78
2021/07/02 06:48:14;;;;;;;6.97;5.18;;;18.60;67.20;;;;;;4966498;28;20407;-78
2021/07/02 06:50:43;;;;;;;5.80;4.57;;;18.70;67.30;;;;;;4969308;28;20042;-78
2021/07/02 06:53:09;;;;;;;6.18;4.50;;;18.70;67.30;;;;;;4968832;28;20054;-80
2021/07/02 06:55:35;;;;;;;7.07;5.05;;;18.70;67.20;;;;;;4976700;28;20042;-78
2021/07/02 06:58:03;;;;;;;5.75;4.40;;;18.70;67.20;;;;;;4985186;28;20069;-78
2021/07/02 07:00:29;;;;;;;7.65;5.03;;;18.70;67.20;;;;;;4968553;28;20088;-80
2021/07/02 07:02:56;;;;;;;5.93;4.35;;;18.70;67.20;;;;;;4966225;28;20027;-78
2021/07/02 07:05:22;;;;;;;6.45;4.55;;;18.70;67.20;;;;;;4942108;28;20086;-78
2021/07/02 07:07:48;;;;;;;6.57;4.47;;;18.70;67.10;;;;;;4933632;28;20473;-78
2021/07/02 07:10:14;;;;;;;6.15;4.38;;;18.80;67.10;;;;;;4963007;28;20386;-77
2021/07/02 07:12:40;;;;;;;5.63;3.70;;;18.80;67.20;;;;;;4985077;28;20360;-78
2021/07/02 07:15:07;;;;;;;6.70;4.32;;;18.80;67.10;;;;;;4949441;28;20058;-78
2021/07/02 07:17:32;;;;;;;6.43;4.57;;;18.80;67.10;;;;;;4966094;28;20038;-78
2021/07/02 07:19:58;;;;;;;6.90;4.57;;;18.90;67.10;;;;;;4967510;28;20645;-79
2021/07/02 07:22:24;;;;;;;5.90;4.47;;;18.90;67.10;;;;;;4984872;28;20022;-78
2021/07/02 07:24:51;;;;;;;6.00;4.57;;;18.90;67.10;;;;;;4977783;28;20042;-78
2021/07/02 07:27:17;;;;;;;6.03;4.55;;;18.90;67.10;;;;;;4952539;28;20042;-78
2021/07/02 07:29:42;;;;;;;5.78;4.55;;;18.90;67.00;;;;;;4986079;28;20038;-78
2021/07/02 07:32:08;;;;;;;6.18;4.50;;;19.00;67.10;;;;;;4951114;28;20029;-78
2021/07/02 07:34:58;;;;;;;5.47;4.07;;;19.00;67.00;;;;;;4962078;28;20491;-78
2021/07/02 07:37:26;;;;;;;6.43;4.38;;;19.00;67.00;;;;;;4968449;28;20042;-78
2021/07/02 07:39:51;;;;;;;5.80;4.10;;;19.00;66.90;;;;;;4933108;28;20054;-78
2021/07/02 07:42:18;;;;;;;6.95;4.35;;;19.10;66.90;;;;;;4949063;28;20027;-79
2021/07/02 07:44:44;;;;;;;6.75;4.47;;;19.10;66.90;;;;;;4949193;28;20034;-78
2021/07/02 07:47:10;;;;;;;6.70;4.00;;;19.20;66.90;;;;;;4956841;28;20031;-78
2021/07/02 07:49:37;;;;;;;5.13;3.75;;;19.20;66.90;;;;;;4957128;28;20661;-78
2021/07/02 07:54:30;;;;;;;6.22;4.45;;;19.30;66.80;;;;;;4980771;28;20090;-78
2021/07/02 07:56:55;;;;;;;5.68;4.03;;;19.30;66.80;;;;;;4964903;28;20042;-78
2021/07/02 07:59:25;;;;;;;5.47;4.28;;;19.30;66.70;;;;;;4956817;28;20373;-78
2021/07/02 08:01:51;;;;;;;5.32;3.65;;;19.40;66.70;;;;;;4936958;28;20034;-78
2021/07/02 08:04:17;;;;;;;6.80;4.22;;;19.50;66.60;;;;;;4967629;28;20083;-79
2021/07/02 08:06:44;;;;;;;6.15;4.15;;;19.60;66.60;;;;;;4967739;28;20117;-78
2021/07/02 08:09:11;;;;;;;5.43;4.10;;;19.60;66.50;;;;;;4928920;29;20027;-78
2021/07/02 08:11:38;;;;;;;5.75;3.58;;;19.60;66.40;;;;;;4969727;28;20118;-78
2021/07/02 08:14:05;;;;;;;5.35;3.67;;;19.70;66.40;;;;;;4983926;28;20383;-78
2021/07/02 08:16:31;;;;;;;5.18;4.00;;;19.80;66.40;;;;;;4951796;28;20038;-78
2021/07/02 08:18:57;;;;;;;5.50;3.67;;;19.80;66.30;;;;;;4965629;28;20038;-78
2021/07/02 08:21:22;;;;;;;4.75;3.55;;;19.90;66.20;;;;;;4964525;28;20039;-78
2021/07/02 08:23:48;;;;;;;6.15;4.18;;;19.90;66.10;;;;;;4964417;28;20110;-80
2021/07/02 08:26:14;;;;;;;5.28;4.00;;;20.00;66.10;;;;;;4956099;28;20043;-78
2021/07/02 08:31:25;;;;;;;5.63;3.78;;;20.10;66.00;;;;;;4976356;28;20037;-78
2021/07/02 08:33:51;;;;;;;5.88;4.10;;;20.20;66.00;;;;;;4967279;28;20022;-78
2021/07/02 08:36:16;;;;;;;5.35;3.60;;;20.20;65.90;;;;;;4965103;28;20451;-78
2021/07/02 08:38:42;;;;;;;5.25;3.58;;;20.30;66.00;;;;;;4972364;28;20049;-78
2021/07/02 08:41:12;;;;;;;5.63;3.70;;;20.30;65.90;;;;;;4964986;28;20077;-78
2021/07/02 08:43:45;;;;;;;5.30;3.83;;;20.30;65.80;;;;;;4962509;28;20079;-79
2021/07/02 08:46:16;;;;;;;5.63;3.95;;;20.40;65.80;;;;;;4940664;29;20035;-78
2021/07/02 08:48:46;;;;;;;5.78;3.97;;;20.40;65.70;;;;;;4952317;28;20034;-79
2021/07/02 08:51:12;;;;;;;5.07;3.53;;;20.50;65.80;;;;;;4950300;28;20014;-78
2021/07/02 08:53:39;;;;;;;5.47;3.58;;;20.50;65.70;;;;;;4975945;28;20468;-78
2021/07/02 08:56:05;;;;;;;5.18;3.60;;;20.60;65.70;;;;;;4966970;28;20034;-78
2021/07/02 08:58:32;;;;;;;5.75;4.15;;;20.60;65.60;;;;;;4966065;28;20038;-79
2021/07/02 09:00:59;;;;;;;5.47;3.92;;;20.60;65.50;;;;;;4979908;28;20070;-79
2021/07/02 09:03:36;;;;;;;5.07;3.67;;;20.60;65.50;;;;;;4987651;28;20475;-79
2021/07/02 09:06:08;;;;;;;5.18;3.80;;;20.70;65.50;;;;;;4964265;28;20037;-78
2021/07/02 09:08:35;;;;;;;5.38;3.70;;;20.70;65.40;;;;;;4947931;29;20371;-78
2021/07/02 09:11:02;;;;;;;5.65;4.22;;;20.70;65.30;;;;;;4934555;28;20379;-79
2021/07/02 09:13:43;;;;;;;5.45;3.90;;;20.80;65.30;;;;;;4960490;28;20122;-79
2021/07/02 09:16:39;;;;;;;6.25;4.43;;;20.80;65.40;;;;;;4956031;28;20121;-79
2021/07/02 09:19:24;;;;;;;4.97;3.88;;;20.80;65.40;;;;;;4949682;28;20057;-78
2021/07/02 09:21:51;;;;;;;5.82;4.05;;;20.90;65.30;;;;;;4958820;28;20030;-80
2021/07/02 09:24:37;;;;;;;6.28;4.65;;;20.90;65.20;;;;;;4979085;28;20030;-79
2021/07/02 09:27:25;;;;;;;6.45;4.20;;;21.00;65.40;;;;;;4964697;28;20067;-79
2021/07/02 09:30:02;;;;;;;6.13;3.90;;;21.00;65.30;;;;;;4976325;28;20041;-79
2021/07/02 09:32:30;;;;;;;5.13;3.85;;;21.00;65.20;;;;;;4935754;28;20081;-79
2021/07/02 09:35:01;;;;;;;5.70;3.95;;;21.10;65.20;;;;;;4983615;28;20494;-79
2021/07/02 09:37:30;;;;;;;6.15;4.32;;;21.10;65.10;;;;;;4939596;28;20109;-79
2021/07/02 09:39:56;;;;;;;6.15;4.28;;;21.20;65.10;;;;;;4979512;28;20105;-79
2021/07/02 09:42:27;;;;;;;5.22;3.63;;;21.20;65.00;;;;;;4979588;28;20603;-78
2021/07/02 09:45:14;;;;;;;5.55;4.05;;;21.30;65.00;;;;;;4963600;28;20090;-79
2021/07/02 09:47:42;;;;;;;5.90;4.38;;;21.30;65.00;;;;;;4956079;28;20034;-79
2021/07/02 09:50:18;;;;;;;6.10;4.45;;;21.40;64.90;;;;;;4944125;29;20019;-79
2021/07/02 09:52:49;;;;;;;5.35;3.92;;;21.50;64.90;;;;;;4955628;28;20387;-79
2021/07/02 09:55:17;;;;;;;5.07;3.80;;;21.50;64.80;;;;;;4946889;28;20051;-79
2021/07/02 09:57:43;;;;;;;5.45;4.22;;;21.60;64.70;;;;;;4949932;28;20034;-79
2021/07/02 10:00:11;;;;;;;5.07;4.15;;;21.70;64.70;;;;;;4960289;28;20035;-79
2021/07/02 10:02:56;;;;;;;5.53;4.00;;;21.70;64.60;;;;;;4949689;28;20049;-79
2021/07/02 10:05:23;;;;;;;6.28;4.20;;;21.80;64.60;;;;;;4950807;28;20117;-84
2021/07/02 10:08:16;;;;;;;6.03;4.60;;;21.80;64.40;;;;;;4952822;28;20034;-79
2021/07/02 10:10:42;;;;;;;6.43;4.53;;;21.90;64.50;;;;;;4967071;28;20479;-78
2021/07/02 10:13:08;;;;;;;5.68;4.03;;;22.00;64.30;;;;;;4939383;29;20027;-79
2021/07/02 10:15:34;;;;;;;7.10;5.03;;;22.10;64.30;;;;;;4971971;28;20034;-79
2021/07/02 10:18:01;;;;;;;6.10;4.60;;;22.10;64.20;;;;;;4968416;28;20027;-79
2021/07/02 10:20:31;;;;;;;6.28;4.70;;;22.10;64.10;;;;;;4985948;28;20462;-79
2021/07/02 10:22:59;;;;;;;7.78;5.45;;;22.20;64.10;;;;;;4977517;28;20031;-79
2021/07/02 10:25:28;;;;;;;5.97;4.93;;;22.20;64.00;;;;;;4960338;28;20080;-79
2021/07/02 10:27:55;;;;;;;6.70;4.90;;;22.30;64.10;;;;;;4963369;28;20086;-79
2021/07/02 10:30:21;;;;;;;6.75;5.35;;;22.30;64.00;;;;;;4975307;28;20031;-78
2021/07/02 10:32:55;;;;;;;6.57;5.00;;;22.40;63.90;;;;;;4983719;28;20026;-79
2021/07/02 10:35:21;;;;;;;6.80;5.07;;;22.40;63.90;;;;;;4952943;28;20324;-78
2021/07/02 10:37:53;;;;;;;6.60;4.78;;;22.50;63.90;;;;;;4985597;28;20026;-79
2021/07/02 10:40:49;;;;;;;7.22;5.28;;;22.50;63.80;;;;;;4984771;28;20134;-79
2021/07/02 10:43:15;;;;;;;7.03;5.28;;;22.50;63.80;;;;;;4957225;28;20023;-80
2021/07/02 10:46:08;;;;;;;7.55;5.38;;;22.60;63.70;;;;;;4946881;29;20034;-79
2021/07/02 10:48:54;;;;;;;6.72;4.90;;;22.60;63.90;;;;;;4965219;28;20380;-80
2021/07/02 10:51:33;;;;;;;7.85;5.65;;;22.60;63.80;;;;;;4965900;28;20026;-78
2021/07/02 10:54:16;;;;;;;6.78;5.20;;;22.60;63.80;;;;;;4986382;28;20042;-79
2021/07/02 10:56:44;;;;;;;7.25;5.30;;;22.60;63.80;;;;;;4966783;28;20391;-79
2021/07/02 10:59:12;;;;;;;6.90;5.03;;;22.70;63.60;;;;;;4966156;28;20023;-79
2021/07/02 11:02:08;;;;;;;6.55;5.20;;;22.70;63.60;;;;;;4965403;28;20042;-79
2021/07/02 11:04:34;;;;;;;;;;;22.80;63.80;;;;;;4978622;28;20031;-80
2021/07/02 11:07:13;;;;;;;7.13;4.97;;;22.80;63.60;;;;;;4968648;28;19953;-79
2021/07/02 11:09:51;;;;;;;6.95;5.20;;;22.80;63.50;;;;;;4976946;28;20030;-80
2021/07/02 11:12:27;;;;;;;7.25;5.07;;;22.80;63.60;;;;;;4984199;28;20030;-80
2021/07/02 11:14:55;;;;;;;7.80;5.57;;;22.80;63.50;;;;;;4986017;28;20088;-79
2021/07/02 11:17:41;;;;;;;7.68;5.53;;;22.80;63.50;;;;;;4984471;28;20060;-80
2021/07/02 11:20:07;;;;;;;6.57;4.95;;;22.80;63.60;;;;;;4981956;28;20715;-79
2021/07/02 11:22:36;;;;;;;6.47;5.05;;;22.90;63.50;;;;;;4974885;28;20031;-80
2021/07/02 11:25:10;;;;;;;7.20;5.28;;;22.90;63.50;;;;;;4967002;28;20038;-79
2021/07/02 11:30:12;;;;;;;7.35;5.30;;;22.90;63.40;;;;;;4982919;28;20289;-80
2021/07/02 11:32:44;;;;;;;7.30;5.20;;;23.00;63.40;;;;;;4978815;28;20147;-78
2021/07/02 11:35:29;;;;;;;7.38;5.60;;;23.00;63.40;;;;;;4950105;28;20039;-79
2021/07/02 11:38:05;;;;;;;6.75;5.00;;;23.00;63.40;;;;;;4952477;28;20026;-79
2021/07/02 11:40:50;;;;;;;7.05;5.25;;;23.10;63.40;;;;;;4973422;28;20104;-78
2021/07/02 11:43:17;;;;;;;7.18;5.05;;;23.10;63.50;;;;;;4965665;28;20042;-79
2021/07/02 11:45:43;;;;;;;6.95;5.40;;;23.10;63.30;;;;;;4976275;28;20415;-79
2021/07/02 11:48:26;;;;;;;6.95;5.63;;;23.10;63.90;;;;;;4976817;28;20027;-80
2021/07/02 11:50:52;;;;;;;8.00;5.45;;;23.10;63.40;;;;;;4971092;28;20026;-78
2021/07/02 11:53:27;;;;;;;6.63;5.25;;;23.10;63.20;;;;;;4951759;28;20030;-79
2021/07/02 11:56:04;;;;;;;8.15;5.70;;;23.20;63.30;;;;;;4941663;28;20046;-80
2021/07/02 11:58:32;;;;;;;7.38;5.28;;;23.10;63.30;;;;;;4964725;28;20042;-80
2021/07/02 12:01:01;;;;;;;7.88;5.88;;;23.20;63.20;;;;;;4964991;28;20139;-79
2021/07/02 12:03:27;;;;;;;8.07;5.97;;;23.20;63.20;;;;;;4964588;28;20539;-80
2021/07/02 12:05:57;;;;;;;7.80;5.60;;;23.20;63.20;;;;;;4983606;28;20113;-79
2021/07/02 12:08:26;;;;;;;7.60;5.75;;;23.20;63.30;;;;;;4967520;28;20038;-80
2021/07/02 12:11:00;;;;;;;6.63;5.10;;;23.20;63.20;;;;;;4961030;28;20029;-80
2021/07/02 12:13:27;;;;;;;;;;;23.20;63.30;;;;;;4983542;28;20026;-79
2021/07/02 12:16:03;;;;;;;6.45;4.60;;;23.20;63.30;;;;;;4982402;28;19922;-80
2021/07/02 12:18:29;;;;;;;7.13;5.15;;;23.20;63.20;;;;;;4978229;28;20034;-79
2021/07/02 12:21:13;;;;;;;8.23;5.35;;;23.20;63.20;;;;;;4966853;28;20026;-79
2021/07/02 12:23:43;;;;;;;7.45;5.25;;;23.20;63.40;;;;;;4960469;28;20042;-79
2021/07/02 12:26:22;;;;;;;6.60;4.97;;;23.20;63.30;;;;;;4982077;28;20391;-80
2021/07/02 12:29:11;;;;;;;6.60;4.80;;;23.20;63.30;;;;;;4967849;28;20041;-79
2021/07/02 12:31:43;;;;;;;6.97;5.40;;;23.20;63.40;;;;;;4942373;28;20027;-79
2021/07/02 12:34:19;;;;;;;7.50;5.10;;;23.20;63.30;;;;;;4980375;28;20035;-79
2021/07/02 12:37:09;;;;;;;6.28;4.95;;;23.20;63.30;;;;;;4964535;28;20046;-79
2021/07/02 12:39:36;;;;;;;7.25;5.00;;;23.20;63.40;;;;;;4972992;28;20041;-79
2021/07/02 12:42:16;;;;;;;6.78;4.93;;;23.30;63.30;;;;;;4949033;29;20444;-79
2021/07/02 12:44:46;;;;;;;6.80;4.88;;;23.20;63.30;;;;;;4965086;28;20034;-79
2021/07/02 12:47:12;;;;;;;6.97;5.22;;;23.30;63.30;;;;;;4963947;28;20435;-80
2021/07/02 12:50:00;;;;;;;6.45;4.57;;;23.30;63.30;;;;;;4971984;28;20077;-79
2021/07/02 12:54:58;;;;;;;6.53;4.85;;;23.30;63.30;;;;;;4982902;28;20046;-78
2021/07/02 12:57:33;;;;;;;6.45;4.70;;;23.40;63.30;;;;;;4966844;28;20053;-79
2021/07/02 13:00:04;;;;;;;;;;;23.30;63.30;;;;;;4957594;28;20114;-79
2021/07/02 13:02:52;;;;;;;6.07;4.35;;;23.40;63.30;;;;;;4979629;28;19949;-79
2021/07/02 13:05:21;;;;;;;6.20;4.53;;;23.40;63.30;;;;;;4961228;28;20054;-79
2021/07/02 13:07:54;;;;;;;6.13;4.75;;;23.30;63.20;;;;;;4965231;28;20038;-79